Time;durP1;ratioP1;P1;durP2;ratioP2;P2;SDS_P1;SDS_P2;PMS_P1;PMS_P2;Temp;Humidity;BMP_temperature;BMP_pressure;BME280_temperature;BME280_humidity;BME280_pressure;Samples;Min_cycle;Max_cycle;Signal;HPM_P1;HPM_P2
2023/07/07 00:00:55;;;;;;;10.40;5.30;;;;;;;12.55;100.00;102184.97;7392307;19;21252;-44
2023/07/07 00:03:25;;;;;;;14.20;6.67;;;;;;;12.57;100.00;102167.84;7383258;19;20451;-42
2023/07/07 00:05:57;;;;;;;8.97;5.73;;;;;;;12.56;100.00;102130.72;7390808;19;20431;-42
2023/07/07 00:08:27;;;;;;;10.40;6.27;;;;;;;12.54;100.00;102101.25;7367238;19;20490;-41
2023/07/07 00:10:58;;;;;;;9.53;5.77;;;;;;;12.54;100.00;102065.03;7388487;19;20973;-44
2023/07/07 00:13:28;;;;;;;11.03;5.80;;;;;;;12.53;100.00;102027.00;7368373;19;20451;-42
2023/07/07 00:16:02;;;;;;;10.87;6.17;;;;;;;12.51;100.00;101991.47;7390271;19;20407;-43
2023/07/07 00:18:32;;;;;;;9.67;6.47;;;;;;;12.48;100.00;101965.41;7367944;19;20444;-42
2023/07/07 00:21:04;;;;;;;7.80;6.10;;;;;;;12.46;100.00;101936.84;7390465;19;20408;-41
2023/07/07 00:23:37;;;;;;;9.07;5.67;;;;;;;12.46;100.00;101903.22;7366687;19;20871;-40
2023/07/07 00:26:09;;;;;;;9.30;6.47;;;;;;;12.45;100.00;101867.78;7392233;19;20414;-41
2023/07/07 00:28:39;;;;;;;11.60;6.57;;;;;;;12.46;100.00;101841.09;7367486;19;20478;-41
2023/07/07 00:31:09;;;;;;;10.47;6.10;;;;;;;12.44;100.00;101829.78;7391057;19;20416;-42
2023/07/07 00:33:39;;;;;;;7.93;6.50;;;;;;;12.44;100.00;101803.91;7366815;19;20459;-42
2023/07/07 00:36:11;;;;;;;11.00;7.70;;;;;;;12.45;100.00;101777.19;7392276;19;20414;-42
2023/07/07 00:38:41;;;;;;;10.37;6.80;;;;;;;12.48;100.00;101768.69;7367145;19;20432;-41
2023/07/07 00:41:11;;;;;;;9.73;7.30;;;;;;;12.44;100.00;101757.31;7390047;19;20418;-42
2023/07/07 00:43:40;;;;;;;12.20;7.30;;;;;;;12.43;100.00;101751.22;7366657;19;20451;-41
2023/07/07 00:46:10;;;;;;;11.00;8.00;;;;;;;12.45;100.00;101747.84;7390115;19;20415;-44
2023/07/07 00:48:44;;;;;;;10.40;7.57;;;;;;;12.42;100.00;101748.59;7366831;19;21183;-40
2023/07/07 00:51:19;;;;;;;9.47;6.83;;;;;;;12.37;100.00;101739.69;7391012;19;20414;-42
2023/07/07 00:53:51;;;;;;;18.60;8.50;;;;;;;12.41;100.00;101723.53;7365373;19;20395;-42
2023/07/07 00:56:24;;;;;;;17.90;7.87;;;;;;;12.36;100.00;101714.66;7390979;19;20415;-43
2023/07/07 00:58:53;;;;;;;11.17;8.03;;;;;;;12.34;100.00;101718.84;7365734;19;20774;-41
2023/07/07 01:01:23;;;;;;;11.43;7.50;;;;;;;12.33;100.00;101710.19;7390487;19;20971;-42
2023/07/07 01:03:56;;;;;;;9.60;7.90;;;;;;;12.29;100.00;101708.25;7364909;19;20762;-40
2023/07/07 01:06:32;;;;;;;11.20;8.20;;;;;;;12.23;100.00;101703.69;7392679;19;20433;-43
2023/07/07 01:09:04;;;;;;;10.17;7.20;;;;;;;12.19;100.00;101703.47;7366382;19;20447;-42
2023/07/07 01:11:34;;;;;;;10.63;7.73;;;;;;;12.18;100.00;101697.38;7389181;19;20769;-40
2023/07/07 01:14:07;;;;;;;11.47;7.63;;;;;;;12.16;100.00;101704.19;7364561;19;20403;-43
2023/07/07 01:16:42;;;;;;;12.30;8.63;;;;;;;12.14;100.00;101701.50;7389537;19;20391;-43
2023/07/07 01:19:27;;;;;;;14.23;9.20;;;;;;;12.12;100.00;101694.47;7365429;19;20475;-44
2023/07/07 01:22:13;;;;;;;13.57;7.80;;;;;;;12.14;100.00;101688.59;7390148;19;20424;-44
2023/07/07 01:24:56;;;;;;;15.33;8.37;;;;;;;12.17;100.00;101687.84;7363643;19;20522;-42
2023/07/07 01:27:42;;;;;;;12.00;8.20;;;;;;;12.18;100.00;101681.84;7390807;19;20918;-43
2023/07/07 01:30:43;;;;;;;14.67;9.27;;;;;;;12.15;100.00;101673.94;7364533;19;20439;-44
2023/07/07 01:33:16;;;;;;;13.00;8.33;;;;;;;12.16;100.00;101660.22;7389986;19;20423;-41
2023/07/07 01:35:45;;;;;;;13.07;8.37;;;;;;;12.16;100.00;101665.38;7366639;19;20996;-40
2023/07/07 01:38:31;;;;;;;11.90;9.13;;;;;;;12.13;100.00;101667.81;7390550;19;20411;-41
2023/07/07 01:41:06;;;;;;;12.63;8.40;;;;;;;12.12;100.00;101666.03;7367840;19;20906;-40
2023/07/07 01:43:40;;;;;;;13.13;8.40;;;;;;;12.13;100.00;101667.81;7364036;19;20441;-41
2023/07/07 01:46:18;;;;;;;15.67;8.67;;;;;;;12.11;100.00;101669.44;7388150;19;20773;-40
2023/07/07 01:48:51;;;;;;;11.87;8.77;;;;;;;12.11;100.00;101667.72;7364001;19;20937;-43
2023/07/07 01:51:22;;;;;;;13.20;8.73;;;;;;;12.24;100.00;101666.63;7389024;19;20503;-43
2023/07/07 01:53:53;;;;;;;11.93;8.03;;;;;;;12.14;100.00;101666.97;7363166;19;20399;-43
2023/07/07 01:56:25;;;;;;;11.87;8.20;;;;;;;12.11;100.00;101670.31;7388583;19;20963;-46
2023/07/07 01:58:55;;;;;;;14.27;8.80;;;;;;;12.08;100.00;101669.25;7364274;19;20445;-42
2023/07/07 02:01:29;;;;;;;11.70;7.83;;;;;;;12.08;100.00;101675.34;7389427;19;20860;-42
2023/07/07 02:03:59;;;;;;;13.30;8.90;;;;;;;12.10;100.00;101672.84;7364246;19;20776;-46
2023/07/07 02:06:28;;;;;;;9.33;7.43;;;;;;;12.15;100.00;101672.25;7389252;19;20412;-46
2023/07/07 02:08:58;;;;;;;13.40;9.50;;;;;;;12.19;100.00;101677.59;7364484;19;20431;-47
2023/07/07 02:11:28;;;;;;;13.27;8.20;;;;;;;12.10;100.00;101675.44;7395367;19;20937;-42
2023/07/07 02:13:57;;;;;;;16.20;8.80;;;;;;;12.13;100.00;101680.72;7369580;19;20403;-44
2023/07/07 02:16:29;;;;;;;14.60;8.87;;;;;;;12.21;100.00;101675.94;7395776;19;20412;-42
2023/07/07 02:18:59;;;;;;;12.97;9.20;;;;;;;12.26;100.00;101679.66;7370669;19;20427;-44
2023/07/07 02:21:29;;;;;;;10.20;7.70;;;;;;;12.17;100.00;101694.72;7395670;19;20439;-46
2023/07/07 02:23:58;;;;;;;11.60;8.73;;;;;;;12.11;100.00;101695.31;7369024;19;20399;-44
2023/07/07 02:26:28;;;;;;;12.07;8.13;;;;;;;12.02;100.00;101701.72;7395206;19;20796;-44
2023/07/07 02:28:58;;;;;;;13.20;8.23;;;;;;;12.02;100.00;101706.91;7370184;19;20774;-43
2023/07/07 02:31:30;;;;;;;10.87;8.13;;;;;;;12.01;100.00;101705.13;7397417;19;20422;-42
2023/07/07 02:33:59;;;;;;;13.50;8.70;;;;;;;11.96;100.00;101706.63;7370269;19;20457;-45
2023/07/07 02:36:29;;;;;;;11.37;8.17;;;;;;;11.93;100.00;101706.44;7397945;19;20755;-43
2023/07/07 02:38:59;;;;;;;10.20;8.67;;;;;;;11.93;100.00;101709.03;7371943;19;20399;-49
2023/07/07 02:41:28;;;;;;;12.70;9.17;;;;;;;11.89;100.00;101712.25;7395042;19;20419;-46
2023/07/07 02:43:58;;;;;;;10.57;8.13;;;;;;;11.85;100.00;101718.97;7369219;19;20479;-43
2023/07/07 02:46:30;;;;;;;15.43;9.10;;;;;;;11.84;100.00;101712.03;7398297;19;20418;-44
2023/07/07 02:49:00;;;;;;;14.63;8.43;;;;;;;11.86;100.00;101710.41;7369892;19;20391;-46
2023/07/07 02:51:29;;;;;;;11.47;8.37;;;;;;;11.85;100.00;101712.94;7393378;19;20411;-43
2023/07/07 02:53:59;;;;;;;12.63;8.10;;;;;;;11.83;100.00;101719.69;7369233;19;20408;-44
2023/07/07 02:56:29;;;;;;;10.77;7.80;;;;;;;11.81;100.00;101721.31;7394640;19;20947;-43
2023/07/07 02:58:59;;;;;;;10.37;8.10;;;;;;;11.79;100.00;101728.13;7369389;19;20391;-46
2023/07/07 03:01:32;;;;;;;10.87;8.00;;;;;;;11.78;100.00;101722.06;7394132;19;20512;-43
2023/07/07 03:04:02;;;;;;;15.90;9.70;;;;;;;11.83;100.00;101727.47;7368662;19;21030;-43
2023/07/07 03:06:31;;;;;;;9.90;8.03;;;;;;;11.81;100.00;101724.81;7397101;19;20417;-43
2023/07/07 03:09:01;;;;;;;12.53;8.60;;;;;;;11.79;100.00;101728.13;7369385;19;20419;-43
2023/07/07 03:11:31;;;;;;;13.70;8.83;;;;;;;11.75;100.00;101738.28;7394502;19;20856;-45
2023/07/07 03:14:00;;;;;;;13.13;7.70;;;;;;;11.74;100.00;101743.38;7368422;19;20426;-43
2023/07/07 03:16:33;;;;;;;12.17;8.57;;;;;;;11.74;100.00;101744.28;7394304;19;20438;-45
2023/07/07 03:19:04;;;;;;;15.67;9.53;;;;;;;11.78;100.00;101747.91;7368963;19;20399;-46
2023/07/07 03:21:34;;;;;;;14.23;8.63;;;;;;;11.80;100.00;101748.00;7394896;19;20406;-43
2023/07/07 03:24:04;;;;;;;11.40;8.80;;;;;;;11.81;100.00;101760.09;7367085;19;20410;-42
2023/07/07 03:26:34;;;;;;;13.07;9.00;;;;;;;11.81;100.00;101754.94;7391741;19;20926;-43
2023/07/07 03:29:03;;;;;;;13.50;9.13;;;;;;;11.84;100.00;101768.03;7369171;19;20962;-45
2023/07/07 03:31:38;;;;;;;14.50;9.67;;;;;;;11.89;100.00;101763.97;7392569;19;20411;-44
2023/07/07 03:34:08;;;;;;;13.40;9.10;;;;;;;11.88;100.00;101767.38;7367654;19;20422;-48
2023/07/07 03:36:38;;;;;;;10.73;7.90;;;;;;;11.93;100.00;101775.38;7393482;19;20419;-45
2023/07/07 03:39:09;;;;;;;13.97;8.40;;;;;;;11.95;100.00;101781.53;7368439;19;20448;-48
2023/07/07 03:41:38;;;;;;;12.30;8.63;;;;;;;12.00;100.00;101786.13;7391955;19;20921;-43
2023/07/07 03:44:08;;;;;;;12.50;9.13;;;;;;;11.98;100.00;101787.75;7362440;19;20805;-51
2023/07/07 03:46:40;;;;;;;12.23;8.30;;;;;;;12.01;100.00;101792.19;7392157;19;20414;-43
2023/07/07 03:49:10;;;;;;;10.53;7.87;;;;;;;12.05;100.00;101798.44;7368252;19;20399;-44
2023/07/07 03:51:40;;;;;;;9.37;8.37;;;;;;;12.10;100.00;101799.59;7391860;19;20435;-47
2023/07/07 03:54:09;;;;;;;11.50;8.53;;;;;;;12.15;100.00;101816.22;7366924;19;20399;-44
2023/07/07 03:56:39;;;;;;;12.23;7.80;;;;;;;12.14;100.00;101812.75;7392466;19;20407;-43
2023/07/07 03:59:08;;;;;;;12.60;8.60;;;;;;;12.16;100.00;101818.00;7367394;19;20399;-45
2023/07/07 04:01:40;;;;;;;9.97;7.70;;;;;;;12.17;100.00;101814.63;7391762;19;20423;-45
2023/07/07 04:04:10;;;;;;;12.47;8.50;;;;;;;12.14;100.00;101824.78;7367022;19;20399;-44
2023/07/07 04:06:40;;;;;;;13.20;8.17;;;;;;;12.12;100.00;101826.41;7391488;19;20415;-44
2023/07/07 04:09:09;;;;;;;10.33;8.30;;;;;;;12.13;100.00;101820.44;7367189;19;20411;-47
2023/07/07 04:11:39;;;;;;;11.93;8.20;;;;;;;12.14;100.00;101822.19;7391385;19;20408;-45
2023/07/07 04:14:08;;;;;;;12.37;8.30;;;;;;;12.18;100.00;101826.72;7366352;19;20402;-46
2023/07/07 04:16:41;;;;;;;11.00;7.80;;;;;;;12.19;100.00;101827.63;7390939;19;20416;-43
2023/07/07 04:19:11;;;;;;;11.37;8.40;;;;;;;12.22;100.00;101839.03;7366795;19;20483;-48
2023/07/07 04:21:40;;;;;;;10.97;7.73;;;;;;;12.25;100.00;101841.75;7391419;19;20411;-46
2023/07/07 04:24:10;;;;;;;11.27;8.77;;;;;;;12.37;100.00;101843.22;7365791;19;20531;-45
2023/07/07 04:26:40;;;;;;;10.97;8.53;;;;;;;12.41;100.00;101852.94;7391136;19;20857;-46
2023/07/07 04:29:09;;;;;;;10.80;8.23;;;;;;;12.45;100.00;101865.19;7367096;19;20394;-45
2023/07/07 04:31:45;;;;;;;12.50;8.40;;;;;;;12.53;100.00;101870.78;7389147;19;20829;-44
2023/07/07 04:34:14;;;;;;;10.83;7.33;;;;;;;12.59;100.00;101880.53;7366831;19;20395;-46
2023/07/07 04:36:44;;;;;;;11.03;8.60;;;;;;;12.65;100.00;101891.22;7390229;19;20411;-46
2023/07/07 04:39:14;;;;;;;10.53;7.40;;;;;;;12.67;100.00;101897.38;7366830;19;20403;-46
2023/07/07 04:41:44;;;;;;;12.60;8.03;;;;;;;12.76;100.00;101908.19;7391164;19;20419;-47
2023/07/07 04:44:14;;;;;;;8.60;7.40;;;;;;;12.88;100.00;101909.66;7365451;19;20399;-44
2023/07/07 04:46:47;;;;;;;37.00;21.43;;;;;;;13.14;100.00;101917.84;7390949;19;20446;-45
2023/07/07 04:49:18;;;;;;;18.57;12.33;;;;;;;13.24;100.00;101926.13;7367333;19;20410;-46
2023/07/07 04:51:47;;;;;;;31.40;19.20;;;;;;;13.27;100.00;101938.34;7390457;19;20491;-47
2023/07/07 04:54:17;;;;;;;12.80;9.33;;;;;;;13.27;100.00;101951.31;7365114;19;20406;-45
2023/07/07 04:56:47;;;;;;;31.40;18.77;;;;;;;13.41;100.00;101958.88;7390583;19;20415;-47
2023/07/07 04:59:17;;;;;;;23.00;11.90;;;;;;;13.49;100.00;101973.16;7367317;19;20414;-45
2023/07/07 05:01:49;;;;;;;20.53;13.27;;;;;;;13.42;100.00;101981.38;7389856;19;20441;-46
2023/07/07 05:04:18;;;;;;;17.50;12.80;;;;;;;13.50;100.00;101993.09;7365180;19;20415;-45
2023/07/07 05:06:48;;;;;;;21.70;10.57;;;;;;;13.60;100.00;101995.28;7389850;19;20411;-47
2023/07/07 05:09:18;;;;;;;13.17;8.60;;;;;;;13.69;100.00;102009.53;7366231;19;20474;-46
2023/07/07 05:11:47;;;;;;;8.83;7.03;;;;;;;13.72;100.00;102017.47;7389973;19;20411;-46
2023/07/07 05:14:17;;;;;;;9.50;6.90;;;;;;;13.67;100.00;102030.22;7365205;19;20414;-42
2023/07/07 05:16:49;;;;;;;8.80;6.43;;;;;;;13.75;100.00;102025.41;7391756;19;20781;-44
2023/07/07 05:19:19;;;;;;;11.33;7.10;;;;;;;13.76;100.00;102030.66;7366302;19;20407;-42
2023/07/07 05:21:48;;;;;;;8.97;6.47;;;;;;;13.84;100.00;102028.44;7391101;19;20764;-45
2023/07/07 05:24:18;;;;;;;12.40;7.00;;;;;;;13.86;100.00;102042.38;7366182;19;20425;-44
2023/07/07 05:26:48;;;;;;;9.70;5.97;;;;;;;13.90;100.00;102040.84;7389714;19;20419;-45
2023/07/07 05:29:17;;;;;;;12.30;7.57;;;;;;;13.97;100.00;102049.78;7365285;19;20395;-43
2023/07/07 05:31:49;;;;;;;8.00;5.20;;;;;;;14.02;100.00;102048.31;7389321;19;20439;-47
2023/07/07 05:34:19;;;;;;;8.73;5.57;;;;;;;14.08;100.00;102058.97;7365187;19;21065;-45
2023/07/07 05:36:49;;;;;;;11.43;5.47;;;;;;;14.13;100.00;102062.69;7388976;19;20407;-43
2023/07/07 05:39:19;;;;;;;11.50;6.40;;;;;;;14.23;100.00;102073.50;7364918;19;20411;-42
2023/07/07 05:41:48;;;;;;;6.80;5.17;;;;;;;14.30;100.00;102076.47;7389443;19;20995;-44
2023/07/07 05:44:18;;;;;;;8.70;5.70;;;;;;;14.38;100.00;102083.72;7366602;19;20806;-43
2023/07/07 05:46:50;;;;;;;9.50;5.70;;;;;;;14.49;100.00;102095.50;7395243;19;20411;-47
2023/07/07 05:49:19;;;;;;;11.53;6.57;;;;;;;14.55;100.00;102098.41;7371742;19;20778;-45
2023/07/07 05:51:49;;;;;;;8.30;5.60;;;;;;;14.62;100.00;102104.78;7395413;19;20425;-47
2023/07/07 05:54:21;;;;;;;12.70;5.37;;;;;;;14.69;100.00;102096.44;7371245;19;20850;-42
2023/07/07 05:56:51;;;;;;;7.37;5.50;;;;;;;14.77;100.00;102108.94;7395646;19;20784;-46
2023/07/07 05:59:20;;;;;;;10.27;5.83;;;;;;;14.81;100.00;102113.41;7372078;19;20433;-45
2023/07/07 06:01:52;;;;;;;7.70;5.77;;;;;;;14.89;100.00;102113.78;7394960;19;20498;-45
2023/07/07 06:04:22;;;;;;;9.43;5.50;;;;;;;15.01;100.00;102118.66;7370220;19;21013;-47
2023/07/07 06:06:52;;;;;;;9.30;5.80;;;;;;;15.11;100.00;102110.44;7395676;19;20424;-45
2023/07/07 06:09:21;;;;;;;10.07;5.30;;;;;;;15.21;100.00;102128.25;7372866;19;20413;-45
2023/07/07 06:11:51;;;;;;;11.70;5.87;;;;;;;15.35;100.00;102136.66;7394923;19;20422;-41
2023/07/07 06:14:20;;;;;;;8.50;5.80;;;;;;;15.40;100.00;102149.84;7370551;19;20432;-46
2023/07/07 06:16:52;;;;;;;10.47;5.40;;;;;;;15.52;100.00;102154.69;7394164;19;20482;-45
2023/07/07 06:19:22;;;;;;;10.33;5.50;;;;;;;15.60;100.00;102166.34;7370577;19;20494;-45
2023/07/07 06:21:52;;;;;;;8.03;4.30;;;;;;;15.69;100.00;102165.81;7394343;19;20445;-46
2023/07/07 06:24:21;;;;;;;9.80;6.20;;;;;;;15.82;100.00;102168.94;7369037;19;20410;-45
2023/07/07 06:26:51;;;;;;;7.30;5.10;;;;;;;15.85;100.00;102169.09;7394940;19;20407;-42
2023/07/07 06:29:20;;;;;;;8.67;5.43;;;;;;;15.99;100.00;102172.31;7370441;19;20403;-42
2023/07/07 06:31:53;;;;;;;11.10;5.63;;;;;;;16.08;100.00;102184.81;7395062;19;20487;-44
2023/07/07 06:34:22;;;;;;;6.40;4.70;;;;;;;16.21;100.00;102179.31;7369455;19;20438;-45
2023/07/07 06:36:52;;;;;;;7.20;4.33;;;;;;;16.25;100.00;102191.59;7394447;19;20422;-45
2023/07/07 06:39:22;;;;;;;9.60;5.30;;;;;;;16.38;100.00;102195.63;7370532;19;20406;-44
2023/07/07 06:41:55;;;;;;;15.70;5.07;;;;;;;16.55;100.00;102201.50;7391409;19;20403;-43
2023/07/07 06:44:25;;;;;;;11.00;5.00;;;;;;;16.65;100.00;102196.63;7364464;19;20430;-43
2023/07/07 06:46:57;;;;;;;10.43;5.17;;;;;;;16.73;100.00;102195.25;7395978;19;20413;-44
2023/07/07 06:49:27;;;;;;;17.67;8.50;;;;;;;16.78;100.00;102208.44;7370220;19;20487;-43
2023/07/07 06:51:56;;;;;;;21.00;11.87;;;;;;;16.89;100.00;102212.38;7395576;19;20468;-45
2023/07/07 06:54:26;;;;;;;11.27;5.17;;;;;;;16.96;100.00;102203.03;7367636;19;20478;-47
2023/07/07 06:56:56;;;;;;;10.53;4.57;;;;;;;17.08;100.00;102200.94;7394713;19;20466;-42
2023/07/07 06:59:25;;;;;;;12.07;6.40;;;;;;;17.13;100.00;102202.00;7370781;19;20459;-44
2023/07/07 07:01:57;;;;;;;12.27;5.97;;;;;;;17.19;100.00;102200.47;7396089;19;20421;-42
2023/07/07 07:04:28;;;;;;;16.90;7.30;;;;;;;17.29;100.00;102197.38;7370156;19;20819;-44
2023/07/07 07:06:57;;;;;;;7.90;4.67;;;;;;;17.49;100.00;102195.47;7396280;19;20471;-42
2023/07/07 07:09:27;;;;;;;8.63;4.80;;;;;;;17.50;100.00;102192.06;7371088;19;20407;-46
2023/07/07 07:11:56;;;;;;;14.07;6.67;;;;;;;17.59;100.00;102191.47;7393896;19;20835;-47
2023/07/07 07:14:26;;;;;;;26.17;10.70;;;;;;;17.70;100.00;102188.38;7370892;19;20796;-42
2023/07/07 07:16:58;;;;;;;25.27;11.40;;;;;;;17.83;100.00;102190.56;7393494;19;20926;-47
2023/07/07 07:19:28;;;;;;;18.50;8.00;;;;;;;17.90;100.00;102182.09;7370831;19;20416;-44
2023/07/07 07:21:57;;;;;;;14.33;8.10;;;;;;;17.95;100.00;102167.47;7396854;19;20441;-45
2023/07/07 07:24:27;;;;;;;8.50;4.23;;;;;;;18.04;100.00;102174.75;7371436;19;20413;-44
2023/07/07 07:26:56;;;;;;;24.10;11.13;;;;;;;18.12;100.00;102161.97;7394310;19;20430;-43
2023/07/07 07:29:26;;;;;;;20.60;9.53;;;;;;;18.22;100.00;102153.59;7369897;19;20474;-46
2023/07/07 07:31:58;;;;;;;31.00;14.90;;;;;;;18.28;100.00;102136.34;7396913;19;20491;-44
2023/07/07 07:34:29;;;;;;;7.90;3.90;;;;;;;18.45;100.00;102161.28;7370289;19;20432;-43
2023/07/07 07:37:02;;;;;;;7.33;4.17;;;;;;;18.54;100.00;102146.72;7394683;19;20423;-43
2023/07/07 07:39:31;;;;;;;8.53;3.80;;;;;;;18.68;100.00;102163.72;7370180;19;20439;-43
2023/07/07 07:42:01;;;;;;;24.67;10.80;;;;;;;18.78;100.00;102162.28;7390338;19;20993;-46
2023/07/07 07:44:31;;;;;;;8.23;3.37;;;;;;;18.89;100.00;102163.50;7367460;19;20514;-44
2023/07/07 07:47:03;;;;;;;24.40;8.30;;;;;;;19.01;100.00;102162.94;7390902;19;20412;-47
2023/07/07 07:49:33;;;;;;;15.27;6.23;;;;;;;19.11;100.00;102143.22;7394021;19;20408;-48
2023/07/07 07:52:03;;;;;;;13.87;6.20;;;;;;;19.20;100.00;102137.34;7367162;19;20406;-44
2023/07/07 07:54:32;;;;;;;10.63;4.77;;;;;;;19.30;100.00;102125.41;7393327;19;20441;-43
2023/07/07 07:57:02;;;;;;;36.63;17.70;;;;;;;19.22;100.00;102101.66;7370768;19;20498;-43
2023/07/07 07:59:31;;;;;;;9.97;5.50;;;;;;;19.28;100.00;102109.66;7393554;19;20407;-46
2023/07/07 08:02:04;;;;;;;35.17;15.63;;;;;;;19.33;100.00;102083.63;7367690;19;20917;-44
2023/07/07 08:04:33;;;;;;;15.33;7.00;;;;;;;19.44;100.00;102068.22;7392444;19;20966;-43
2023/07/07 08:07:03;;;;;;;6.90;3.50;;;;;;;19.52;100.00;102050.97;7363827;19;20395;-43
2023/07/07 08:09:32;;;;;;;23.03;11.07;;;;;;;19.70;100.00;102070.59;7392468;19;20478;-46
2023/07/07 08:12:03;;;;;;;33.33;15.33;;;;;;;19.71;100.00;102035.72;7368058;19;20935;-42
2023/07/07 08:14:34;;;;;;;13.60;6.40;;;;;;;19.76;100.00;101992.22;7394909;19;20451;-45
2023/07/07 08:17:10;;;;;;;27.03;12.97;;;;;;;19.89;100.00;101984.63;7368622;19;20986;-41
2023/07/07 08:19:41;;;;;;;33.30;16.17;;;;;;;19.98;100.00;101963.03;7394009;19;20414;-45
2023/07/07 08:22:14;;;;;;;10.60;5.23;;;;;;;20.15;100.00;101997.44;7370077;19;20842;-44
2023/07/07 08:24:46;;;;;;;23.50;11.50;;;;;;;20.09;100.00;101933.59;7391750;19;20450;-45
2023/07/07 08:27:17;;;;;;;20.80;10.00;;;;;;;20.07;100.00;101909.13;7368235;19;20399;-46
2023/07/07 08:29:50;;;;;;;23.80;10.17;;;;;;;20.16;100.00;101903.19;7393131;19;20388;-42
2023/07/07 08:32:25;;;;;;;21.33;8.87;;;;;;;20.26;100.00;101867.56;7368494;19;20755;-41
2023/07/07 08:34:56;;;;;;;19.53;9.73;;;;;;;20.39;100.00;101859.94;7393746;19;20451;-47
2023/07/07 08:37:26;;;;;;;14.17;6.93;;;;;;;20.50;100.00;101813.81;7369416;19;20410;-46
2023/07/07 08:39:57;;;;;;;21.50;7.93;;;;;;;20.63;100.00;101805.28;7391592;19;20419;-46
2023/07/07 08:42:31;;;;;;;33.83;15.20;;;;;;;20.55;100.00;101759.72;7365480;19;20915;-43
2023/07/07 08:45:02;;;;;;;18.37;7.80;;;;;;;20.66;100.00;101693.50;7392674;19;20573;-43
2023/07/07 08:47:44;;;;;;;32.50;13.83;;;;;;;20.78;100.00;101655.22;7367875;19;20439;-46
2023/07/07 08:50:20;;;;;;;7.50;4.00;;;;;;;20.86;100.00;101665.84;7393965;19;20407;-47
2023/07/07 08:53:05;;;;;;;26.47;13.27;;;;;;;20.77;100.00;101720.75;7388921;19;20407;-46
2023/07/07 08:55:43;;;;;;;23.93;10.93;;;;;;;20.78;100.00;101746.13;7396628;19;20498;-46
2023/07/07 08:58:25;;;;;;;30.17;13.63;;;;;;;20.95;100.00;101743.75;7365819;19;20828;-47
2023/07/07 09:01:08;;;;;;;14.03;6.10;;;;;;;21.02;100.00;101744.75;7392653;19;20443;-44
2023/07/07 09:03:50;;;;;;;15.20;7.30;;;;;;;21.05;100.00;101736.91;7359590;19;20518;-45
2023/07/07 09:06:28;;;;;;;27.67;11.00;;;;;;;21.06;100.00;101736.03;7393612;19;20435;-44
2023/07/07 09:09:02;;;;;;;18.27;8.87;;;;;;;20.99;100.00;101728.94;7366122;19;20500;-46
2023/07/07 09:11:44;;;;;;;29.50;13.73;;;;;;;21.06;100.00;101733.41;7390397;19;22144;-45
2023/07/07 09:14:14;;;;;;;9.33;4.50;;;;;;;21.25;100.00;101710.03;7365946;19;20475;-45
2023/07/07 09:16:45;;;;;;;29.43;11.17;;;;;;;21.34;100.00;101688.28;7389524;19;20431;-44
2023/07/07 09:19:19;;;;;;;31.37;13.93;;;;;;;21.30;100.00;101655.88;7372360;19;20502;-47
2023/07/07 09:21:53;;;;;;;11.40;4.70;;;;;;;21.49;100.00;101635.97;7399380;19;20412;-42
2023/07/07 09:24:27;;;;;;;13.83;6.23;;;;;;;21.45;100.00;101639.44;7374042;19;20458;-46
2023/07/07 09:26:59;;;;;;;23.20;9.90;;;;;;;21.62;100.00;101628.19;7398938;19;20411;-44
2023/07/07 09:29:30;;;;;;;17.73;6.23;;;;;;;21.59;100.00;101623.81;7376642;19;20433;-48
2023/07/07 09:32:02;;;;;;;14.70;6.23;;;;;;;21.57;100.00;101613.31;7402550;19;20406;-48
2023/07/07 09:34:35;;;;;;;10.90;4.50;;;;;;;21.54;100.00;101621.13;7374671;19;20482;-45
2023/07/07 09:37:10;;;;;;;11.43;5.13;;;;;;;21.78;100.00;101589.88;7402453;19;20434;-46
2023/07/07 09:39:50;;;;;;;4.50;2.17;;;;;;;22.10;100.00;101566.47;7373819;19;20450;-44
2023/07/07 09:42:37;;;;;;;6.73;3.27;;;;;;;21.96;100.00;101579.50;7373953;19;21334;-44
2023/07/07 09:45:18;;;;;;;4.33;2.47;;;;;;;21.87;100.00;101573.28;7397316;19;21001;-45
2023/07/07 09:47:51;;;;;;;6.90;3.57;;;;;;;22.34;100.00;101540.31;7373949;19;20454;-45
2023/07/07 09:50:27;;;;;;;17.63;8.40;;;;;;;21.97;100.00;101581.28;7397358;19;20435;-43
2023/07/07 09:53:00;;;;;;;18.13;7.47;;;;;;;22.13;100.00;101555.09;7370619;19;20426;-44
2023/07/07 09:55:45;;;;;;;12.63;5.53;;;;;;;22.34;100.00;101548.19;7393998;19;20471;-49
2023/07/07 09:58:18;;;;;;;13.63;4.90;;;;;;;22.33;100.00;101523.69;7373591;19;20545;-47
2023/07/07 10:00:51;;;;;;;8.60;3.30;;;;;;;22.23;100.00;101513.97;7396935;19;20478;-44
2023/07/07 10:03:25;;;;;;;16.37;7.33;;;;;;;22.36;100.00;101493.91;7370347;19;20467;-48
2023/07/07 10:05:58;;;;;;;16.20;6.93;;;;;;;22.41;100.00;101494.81;7395665;19;20411;-44
2023/07/07 10:08:29;;;;;;;9.27;3.53;;;;;;;22.43;100.00;101487.81;7372440;19;20437;-46
2023/07/07 10:11:04;;;;;;;7.43;3.30;;;;;;;22.65;100.00;101469.50;7396659;19;20424;-45
2023/07/07 10:13:55;;;;;;;5.00;2.40;;;;;;;22.96;100.00;101469.53;7369697;19;21039;-48
2023/07/07 10:16:35;;;;;;;12.83;5.60;;;;;;;23.02;100.00;101458.19;7397141;19;20438;-44
2023/07/07 10:19:07;;;;;;;8.67;2.30;;;;;;;22.88;100.00;101456.41;7370179;19;20430;-44
2023/07/07 10:21:40;;;;;;;24.83;11.27;;;;;;;22.74;100.00;101466.91;7400400;19;20410;-44
2023/07/07 10:24:12;;;;;;;13.33;6.37;;;;;;;22.77;100.00;101463.41;7371559;19;20471;-45
2023/07/07 10:26:46;;;;;;;12.20;5.73;;;;;;;22.74;100.00;101464.25;7396654;19;20471;-45
2023/07/07 10:29:21;;;;;;;7.30;2.93;;;;;;;22.93;100.00;101453.78;7371603;19;20974;-43
2023/07/07 10:31:51;;;;;;;4.70;2.27;;;;;;;23.12;100.00;101449.38;7396311;19;20772;-46
2023/07/07 10:34:28;;;;;;;11.30;4.43;;;;;;;22.93;100.00;101443.25;7370186;19;20542;-42
2023/07/07 10:37:01;;;;;;;14.53;3.70;;;;;;;23.13;100.00;101445.88;7394794;19;20420;-46
2023/07/07 10:39:32;;;;;;;4.40;2.13;;;;;;;23.42;100.00;101436.25;7371162;19;20451;-44
2023/07/07 10:42:01;;;;;;;9.70;4.10;;;;;;;23.17;100.00;101436.25;7394168;19;20479;-46
2023/07/07 10:44:31;;;;;;;15.80;6.83;;;;;;;23.15;100.00;101432.72;7369723;19;20470;-44
2023/07/07 10:47:00;;;;;;;7.97;2.70;;;;;;;23.01;100.00;101422.19;7398427;19;21061;-45
2023/07/07 10:49:30;;;;;;;7.93;4.30;;;;;;;23.34;100.00;101417.84;7371690;19;20455;-47
2023/07/07 10:52:23;;;;;;;7.33;2.73;;;;;;;23.35;100.00;101405.53;7393575;19;20414;-45
2023/07/07 10:55:20;;;;;;;6.90;3.30;;;;;;;23.42;100.00;101407.28;7373590;19;20463;-48
2023/07/07 10:58:00;;;;;;;10.33;4.50;;;;;;;23.51;100.00;101402.03;7373491;19;20857;-43
2023/07/07 11:00:46;;;;;;;8.93;4.27;;;;;;;23.00;100.00;101404.66;7398321;19;20411;-46
2023/07/07 11:03:51;;;;;;;11.30;5.23;;;;;;;23.39;100.00;101409.94;7368690;19;20465;-43
2023/07/07 11:06:30;;;;;;;13.63;6.03;;;;;;;22.98;100.00;101398.53;7396529;19;20426;-43
2023/07/07 11:09:13;;;;;;;10.10;4.93;;;;;;;23.04;100.00;101402.06;7372929;19;20459;-43
2023/07/07 11:11:52;;;;;;;8.60;3.30;;;;;;;23.42;100.00;101402.91;7394084;19;20415;-44
2023/07/07 11:14:37;;;;;;;29.10;13.60;;;;;;;23.15;100.00;101390.63;7368625;19;20551;-46
2023/07/07 11:17:17;;;;;;;8.63;3.17;;;;;;;23.39;100.00;101392.41;7397088;19;20887;-46
2023/07/07 11:20:04;;;;;;;15.10;7.70;;;;;;;22.91;100.00;101385.38;7375056;19;21012;-44
2023/07/07 11:22:56;;;;;;;8.37;4.10;;;;;;;23.29;100.00;101386.22;7370885;19;20432;-43
2023/07/07 11:25:34;;;;;;;10.97;4.63;;;;;;;22.97;100.00;101373.97;7395975;19;20403;-44
2023/07/07 11:28:14;;;;;;;9.10;4.50;;;;;;;23.42;100.00;101380.97;7371463;19;20423;-47
2023/07/07 11:30:53;;;;;;;6.43;2.53;;;;;;;23.54;100.00;101378.31;7394043;19;20435;-47
2023/07/07 11:33:32;;;;;;;10.60;4.50;;;;;;;23.32;99.75;101366.94;7370650;19;21092;-45